sensor_id;sensor_type;location;lat;lon;timestamp;pressure;altitude;pressure_sealevel;temperature;humidity
31299;BME280;17927;52.350;13.402;2023-02-13T00:00:51;103324.25;;;12.35;62.54
31299;BME280;17927;52.350;13.402;2023-02-13T00:03:17;103323.28;;;12.36;62.53
31299;BME280;17927;52.350;13.402;2023-02-13T00:05:42;103326.06;;;12.34;62.36
31299;BME280;17927;52.350;13.402;2023-02-13T00:08:07;103326.16;;;12.33;62.65
31299;BME280;17927;52.350;13.402;2023-02-13T00:10:33;103330.69;;;12.32;62.51
31299;BME280;17927;52.350;13.402;2023-02-13T00:12:58;103333.41;;;12.32;62.58
31299;BME280;17927;52.350;13.402;2023-02-13T00:15:23;103328.88;;;12.33;62.52
31299;BME280;17927;52.350;13.402;2023-02-13T00:17:48;103333.22;;;12.36;62.37
31299;BME280;17927;52.350;13.402;2023-02-13T00:20:13;103332.28;;;12.37;62.51
31299;BME280;17927;52.350;13.402;2023-02-13T00:22:40;103329.56;;;12.37;62.40
31299;BME280;17927;52.350;13.402;2023-02-13T00:25:06;103326.84;;;12.37;62.42
31299;BME280;17927;52.350;13.402;2023-02-13T00:27:31;103323.06;;;12.39;62.60
31299;BME280;17927;52.350;13.402;2023-02-13T00:29:57;103332.00;;;12.41;62.50
31299;BME280;17927;52.350;13.402;2023-02-13T00:32:22;103329.28;;;12.41;62.39
31299;BME280;17927;52.350;13.402;2023-02-13T00:34:47;103332.88;;;12.42;62.61
31299;BME280;17927;52.350;13.402;2023-02-13T00:37:12;103332.88;;;12.42;62.43
31299;BME280;17927;52.350;13.402;2023-02-13T00:39:38;103332.00;;;12.41;62.27
31299;BME280;17927;52.350;13.402;2023-02-13T00:42:04;103326.56;;;12.41;62.12
31299;BME280;17927;52.350;13.402;2023-02-13T00:44:29;103336.56;;;12.41;62.42
31299;BME280;17927;52.350;13.402;2023-02-13T00:46:54;103333.91;;;12.39;62.11
31299;BME280;17927;52.350;13.402;2023-02-13T00:49:19;103333.91;;;12.39;62.13
31299;BME280;17927;52.350;13.402;2023-02-13T00:51:45;103329.38;;;12.40;61.84
31299;BME280;17927;52.350;13.402;2023-02-13T00:54:10;103329.38;;;12.40;61.89
31299;BME280;17927;52.350;13.402;2023-02-13T00:56:35;103328.41;;;12.41;61.86
31299;BME280;17927;52.350;13.402;2023-02-13T00:59:00;103329.22;;;12.43;61.90
31299;BME280;17927;52.350;13.402;2023-02-13T01:01:26;103334.63;;;12.43;61.79
31299;BME280;17927;52.350;13.402;2023-02-13T01:03:51;103327.28;;;12.45;61.69
31299;BME280;17927;52.350;13.402;2023-02-13T01:06:16;103330.84;;;12.45;61.74
31299;BME280;17927;52.350;13.402;2023-02-13T01:08:41;103336.16;;;12.47;61.54
31299;BME280;17927;52.350;13.402;2023-02-13T01:11:10;103335.31;;;12.46;61.53
31299;BME280;17927;52.350;13.402;2023-02-13T01:13:35;103342.66;;;12.44;61.32
31299;BME280;17927;52.350;13.402;2023-02-13T01:16:00;103336.56;;;12.41;61.50
31299;BME280;17927;52.350;13.402;2023-02-13T01:18:26;103336.63;;;12.39;61.32
31299;BME280;17927;52.350;13.402;2023-02-13T01:21:03;103338.47;;;12.39;61.21
31299;BME280;17927;52.350;13.402;2023-02-13T01:23:34;103339.44;;;12.38;61.42
31299;BME280;17927;52.350;13.402;2023-02-13T01:25:59;103336.84;;;12.36;61.07
31299;BME280;17927;52.350;13.402;2023-02-13T01:28:27;103331.41;;;12.36;61.00
31299;BME280;17927;52.350;13.402;2023-02-13T01:30:56;103334.13;;;12.36;60.91
31299;BME280;17927;52.350;13.402;2023-02-13T01:33:22;103331.50;;;12.34;60.88
31299;BME280;17927;52.350;13.402;2023-02-13T01:35:48;103335.09;;;12.35;60.85
31299;BME280;17927;52.350;13.402;2023-02-13T01:38:13;103338.66;;;12.36;60.73
31299;BME280;17927;52.350;13.402;2023-02-13T01:40:50;103333.22;;;12.36;60.59
31299;BME280;17927;52.350;13.402;2023-02-13T01:43:16;103317.94;;;12.34;60.65
31299;BME280;17927;52.350;13.402;2023-02-13T01:45:43;103323.34;;;12.34;60.60
31299;BME280;17927;52.350;13.402;2023-02-13T01:48:16;103321.59;;;12.33;60.68
31299;BME280;17927;52.350;13.402;2023-02-13T01:53:26;103318.03;;;12.33;60.45
31299;BME280;17927;52.350;13.402;2023-02-13T01:55:58;103316.94;;;12.21;60.85
31299;BME280;17927;52.350;13.402;2023-02-13T01:58:28;103324.94;;;12.23;60.75
31299;BME280;17927;52.350;13.402;2023-02-13T02:00:54;103318.41;;;12.27;60.64
31299;BME280;17927;52.350;13.402;2023-02-13T02:03:40;103310.94;;;12.30;60.46
31299;BME280;17927;52.350;13.402;2023-02-13T02:06:12;103320.81;;;12.31;60.54
31299;BME280;17927;52.350;13.402;2023-02-13T02:08:39;103317.25;;;12.31;60.16
31299;BME280;17927;52.350;13.402;2023-02-13T02:11:12;103312.78;;;12.30;60.12
31299;BME280;17927;52.350;13.402;2023-02-13T02:13:40;103322.84;;;12.28;60.22
31299;BME280;17927;52.350;13.402;2023-02-13T02:16:05;103324.72;;;12.27;60.22
31299;BME280;17927;52.350;13.402;2023-02-13T02:18:31;103316.75;;;12.24;60.21
31299;BME280;17927;52.350;13.402;2023-02-13T02:27:01;103320.00;;;12.15;60.16
31299;BME280;17927;52.350;13.402;2023-02-13T02:32:25;103325.50;;;12.13;59.98
31299;BME280;17927;52.350;13.402;2023-02-13T02:35:04;103321.16;;;12.11;60.01
31299;BME280;17927;52.350;13.402;2023-02-13T02:37:47;103329.28;;;12.11;60.14
31299;BME280;17927;52.350;13.402;2023-02-13T02:48:52;103328.56;;;12.07;60.15
31299;BME280;17927;52.350;13.402;2023-02-13T02:54:12;103331.38;;;12.06;60.04
31299;BME280;17927;52.350;13.402;2023-02-13T02:57:02;103327.88;;;12.03;60.31
31299;BME280;17927;52.350;13.402;2023-02-13T02:59:31;103326.06;;;12.04;60.19
31299;BME280;17927;52.350;13.402;2023-02-13T03:02:15;103322.47;;;12.03;60.22
31299;BME280;17927;52.350;13.402;2023-02-13T03:05:01;103326.91;;;12.05;60.21
31299;BME280;17927;52.350;13.402;2023-02-13T03:07:45;103328.00;;;12.02;60.35
31299;BME280;17927;52.350;13.402;2023-02-13T03:10:15;103329.75;;;12.03;60.38
31299;BME280;17927;52.350;13.402;2023-02-13T03:13:06;103328.00;;;12.02;60.47
31299;BME280;17927;52.350;13.402;2023-02-13T03:15:50;103339.69;;;12.02;60.28
31299;BME280;17927;52.350;13.402;2023-02-13T03:18:38;103329.75;;;12.03;60.41
31299;BME280;17927;52.350;13.402;2023-02-13T03:25:16;103328.94;;;12.01;60.58
31299;BME280;17927;52.350;13.402;2023-02-13T03:28:06;103339.00;;;11.99;60.40
31299;BME280;17927;52.350;13.402;2023-02-13T03:36:46;103332.72;;;11.98;60.49
31299;BME280;17927;52.350;13.402;2023-02-13T03:39:48;103327.34;;;11.97;60.78
31299;BME280;17927;52.350;13.402;2023-02-13T03:44:59;103329.91;;;12.00;60.46
31299;BME280;17927;52.350;13.402;2023-02-13T03:47:46;103330.88;;;11.99;60.68
31299;BME280;17927;52.350;13.402;2023-02-13T03:50:14;103335.22;;;12.01;60.39
31299;BME280;17927;52.350;13.402;2023-02-13T03:52:57;103334.38;;;12.01;60.37
31299;BME280;17927;52.350;13.402;2023-02-13T03:55:28;103325.44;;;11.99;60.60
31299;BME280;17927;52.350;13.402;2023-02-13T03:58:20;103323.66;;;11.98;60.37
31299;BME280;17927;52.350;13.402;2023-02-13T04:01:07;103325.59;;;11.96;60.62
31299;BME280;17927;52.350;13.402;2023-02-13T04:03:45;103325.44;;;11.99;60.79
31299;BME280;17927;52.350;13.402;2023-02-13T04:06:16;103327.34;;;11.97;60.56
31299;BME280;17927;52.350;13.402;2023-02-13T04:08:44;103320.09;;;11.97;60.45
31299;BME280;17927;52.350;13.402;2023-02-13T04:11:14;103323.66;;;11.98;60.72
31299;BME280;17927;52.350;13.402;2023-02-13T04:13:46;103316.50;;;11.97;60.45
31299;BME280;17927;52.350;13.402;2023-02-13T04:16:37;103324.72;;;11.95;60.63
31299;BME280;17927;52.350;13.402;2023-02-13T04:19:03;103323.78;;;11.80;60.78
31299;BME280;17927;52.350;13.402;2023-02-13T04:21:34;103316.44;;;11.82;60.67
31299;BME280;17927;52.350;13.402;2023-02-13T04:23:59;103327.94;;;11.86;61.03
31299;BME280;17927;52.350;13.402;2023-02-13T04:26:30;103317.84;;;11.90;60.63
31299;BME280;17927;52.350;13.402;2023-02-13T04:28:56;103319.59;;;11.91;60.53
31299;BME280;17927;52.350;13.402;2023-02-13T04:31:22;103315.97;;;11.90;60.31
31299;BME280;17927;52.350;13.402;2023-02-13T04:33:47;103317.84;;;11.90;60.44
31299;BME280;17927;52.350;13.402;2023-02-13T04:36:12;103307.00;;;11.90;60.24
31299;BME280;17927;52.350;13.402;2023-02-13T04:38:37;103313.19;;;11.92;60.37
31299;BME280;17927;52.350;13.402;2023-02-13T04:41:03;103308.81;;;11.89;60.40
31299;BME280;17927;52.350;13.402;2023-02-13T04:43:28;103299.91;;;11.87;60.50
31299;BME280;17927;52.350;13.402;2023-02-13T04:45:53;103305.31;;;11.87;60.61
31299;BME280;17927;52.350;13.402;2023-02-13T04:48:18;103305.50;;;11.84;60.43
31299;BME280;17927;52.350;13.402;2023-02-13T04:50:44;103305.69;;;11.81;60.61
31299;BME280;17927;52.350;13.402;2023-02-13T04:53:09;103305.69;;;11.81;60.81
31299;BME280;17927;52.350;13.402;2023-02-13T04:55:34;103303.94;;;11.80;60.70
31299;BME280;17927;52.350;13.402;2023-02-13T04:57:59;103300.34;;;11.79;60.40
31299;BME280;17927;52.350;13.402;2023-02-13T05:00:26;103310.22;;;11.80;60.46
31299;BME280;17927;52.350;13.402;2023-02-13T05:02:52;103307.50;;;11.80;60.41
31299;BME280;17927;52.350;13.402;2023-02-13T05:05:18;103299.41;;;11.80;60.40
31299;BME280;17927;52.350;13.402;2023-02-13T05:07:43;103306.56;;;11.81;60.40
31299;BME280;17927;52.350;13.402;2023-02-13T05:10:10;103302.19;;;11.79;60.05
31299;BME280;17927;52.350;13.402;2023-02-13T05:12:36;103308.75;;;11.75;59.98
31299;BME280;17927;52.350;13.402;2023-02-13T05:15:01;103306.38;;;11.68;59.74
31299;BME280;17927;52.350;13.402;2023-02-13T05:17:26;103308.50;;;11.63;59.74
31299;BME280;17927;52.350;13.402;2023-02-13T05:19:51;103312.16;;;11.62;59.70
31299;BME280;17927;52.350;13.402;2023-02-13T05:22:17;103307.72;;;11.61;59.80
31299;BME280;17927;52.350;13.402;2023-02-13T05:25:01;103311.38;;;11.60;59.82
31299;BME280;17927;52.350;13.402;2023-02-13T05:27:26;103309.53;;;11.61;59.50
31299;BME280;17927;52.350;13.402;2023-02-13T05:29:52;103300.66;;;11.58;59.56
31299;BME280;17927;52.350;13.402;2023-02-13T05:32:17;103301.59;;;11.57;59.66
31299;BME280;17927;52.350;13.402;2023-02-13T05:34:42;103311.47;;;11.58;59.47
31299;BME280;17927;52.350;13.402;2023-02-13T05:37:07;103306.75;;;11.62;59.44
31299;BME280;17927;52.350;13.402;2023-02-13T05:39:33;103311.03;;;11.66;59.55
31299;BME280;17927;52.350;13.402;2023-02-13T05:41:58;103316.25;;;11.69;59.30
31299;BME280;17927;52.350;13.402;2023-02-13T05:44:23;103321.44;;;11.74;59.25
31299;BME280;17927;52.350;13.402;2023-02-13T05:46:48;103318.63;;;11.76;58.91
31299;BME280;17927;52.350;13.402;2023-02-13T05:49:14;103319.47;;;11.76;58.73
31299;BME280;17927;52.350;13.402;2023-02-13T05:51:41;103315.06;;;11.75;58.60
31299;BME280;17927;52.350;13.402;2023-02-13T05:54:07;103319.69;;;11.73;58.43
31299;BME280;17927;52.350;13.402;2023-02-13T05:56:32;103318.97;;;11.69;58.25
31299;BME280;17927;52.350;13.402;2023-02-13T05:58:57;103331.03;;;11.64;58.18
31299;BME280;17927;52.350;13.402;2023-02-13T06:01:23;103330.22;;;11.62;58.11
31299;BME280;17927;52.350;13.402;2023-02-13T06:03:48;103332.25;;;11.58;58.39
31299;BME280;17927;52.350;13.402;2023-02-13T06:06:14;103327.88;;;11.55;58.44
31299;BME280;17927;52.350;13.402;2023-02-13T06:08:39;103337.94;;;11.53;58.13
31299;BME280;17927;52.350;13.402;2023-02-13T06:11:05;103339.75;;;11.53;58.13
31299;BME280;17927;52.350;13.402;2023-02-13T06:13:30;103346.22;;;11.50;58.27
31299;BME280;17927;52.350;13.402;2023-02-13T06:15:55;103350.78;;;11.50;58.33
31299;BME280;17927;52.350;13.402;2023-02-13T06:18:21;103343.66;;;11.47;58.27
31299;BME280;17927;52.350;13.402;2023-02-13T06:20:46;103347.28;;;11.48;58.55
31299;BME280;17927;52.350;13.402;2023-02-13T06:23:12;103351.78;;;11.47;58.51
31299;BME280;17927;52.350;13.402;2023-02-13T06:25:37;103355.28;;;11.49;58.75
31299;BME280;17927;52.350;13.402;2023-02-13T06:28:03;103359.75;;;11.50;58.62
31299;BME280;17927;52.350;13.402;2023-02-13T06:30:30;103357.94;;;11.51;58.74
31299;BME280;17927;52.350;13.402;2023-02-13T06:32:55;103357.84;;;11.52;58.64
31299;BME280;17927;52.350;13.402;2023-02-13T06:35:20;103354.28;;;11.52;58.60
31299;BME280;17927;52.350;13.402;2023-02-13T06:37:46;103354.28;;;11.52;58.80
31299;BME280;17927;52.350;13.402;2023-02-13T06:40:12;103352.53;;;11.51;59.05
31299;BME280;17927;52.350;13.402;2023-02-13T06:42:37;103352.53;;;11.51;58.98
31299;BME280;17927;52.350;13.402;2023-02-13T06:45:03;103358.88;;;11.50;58.96
31299;BME280;17927;52.350;13.402;2023-02-13T06:47:29;103361.75;;;11.47;58.98
31299;BME280;17927;52.350;13.402;2023-02-13T06:49:54;103363.69;;;11.45;59.04
31299;BME280;17927;52.350;13.402;2023-02-13T06:52:20;103361.94;;;11.43;59.21
31299;BME280;17927;52.350;13.402;2023-02-13T06:54:45;103364.78;;;11.40;59.33
31299;BME280;17927;52.350;13.402;2023-02-13T06:57:10;103369.41;;;11.38;59.13
31299;BME280;17927;52.350;13.402;2023-02-13T06:59:36;103366.81;;;11.37;59.36
31299;BME280;17927;52.350;13.402;2023-02-13T07:02:01;103369.59;;;11.35;59.72
31299;BME280;17927;52.350;13.402;2023-02-13T07:04:26;103366.97;;;11.34;59.71
31299;BME280;17927;52.350;13.402;2023-02-13T07:06:54;103375.19;;;11.32;60.04
31299;BME280;17927;52.350;13.402;2023-02-13T07:09:19;103374.22;;;11.33;60.08
31299;BME280;17927;52.350;13.402;2023-02-13T07:11:45;103367.06;;;11.32;60.38
31299;BME280;17927;52.350;13.402;2023-02-13T07:14:10;103371.59;;;11.32;60.36
31299;BME280;17927;52.350;13.402;2023-02-13T07:16:35;103365.22;;;11.33;60.59
31299;BME280;17927;52.350;13.402;2023-02-13T07:19:00;103364.25;;;11.34;60.42
31299;BME280;17927;52.350;13.402;2023-02-13T07:21:26;103366.97;;;11.34;60.13
31299;BME280;17927;52.350;13.402;2023-02-13T07:23:51;103368.72;;;11.35;60.56
31299;BME280;17927;52.350;13.402;2023-02-13T07:26:16;103368.66;;;11.36;60.60
31299;BME280;17927;52.350;13.402;2023-02-13T07:28:42;103365.06;;;11.36;60.45
31299;BME280;17927;52.350;13.402;2023-02-13T07:31:07;103374.81;;;11.38;60.62
31299;BME280;17927;52.350;13.402;2023-02-13T07:33:33;103372.13;;;11.38;60.74
31299;BME280;17927;52.350;13.402;2023-02-13T07:35:59;103366.81;;;11.37;60.98
31299;BME280;17927;52.350;13.402;2023-02-13T07:38:27;103368.56;;;11.38;60.76
31299;BME280;17927;52.350;13.402;2023-02-13T07:40:53;103369.50;;;11.37;60.88
31299;BME280;17927;52.350;13.402;2023-02-13T07:43:18;103368.56;;;11.38;61.00
31299;BME280;17927;52.350;13.402;2023-02-13T07:45:43;103373.97;;;11.38;60.84
31299;BME280;17927;52.350;13.402;2023-02-13T07:48:08;103375.72;;;11.39;61.10
31299;BME280;17927;52.350;13.402;2023-02-13T07:50:34;103376.69;;;11.38;60.83
31299;BME280;17927;52.350;13.402;2023-02-13T07:53:00;103371.25;;;11.38;61.13
31299;BME280;17927;52.350;13.402;2023-02-13T07:55:29;103376.59;;;11.39;61.44
31299;BME280;17927;52.350;13.402;2023-02-13T07:57:54;103383.84;;;11.39;61.28
31299;BME280;17927;52.350;13.402;2023-02-13T08:00:20;103380.06;;;11.41;61.43
31299;BME280;17927;52.350;13.402;2023-02-13T08:02:46;103381.75;;;11.44;61.37
31299;BME280;17927;52.350;13.402;2023-02-13T08:05:11;103383.47;;;11.45;61.39
31299;BME280;17927;52.350;13.402;2023-02-13T08:07:37;103383.41;;;11.47;61.25
31299;BME280;17927;52.350;13.402;2023-02-13T08:10:04;103378.78;;;11.49;61.15
31299;BME280;17927;52.350;13.402;2023-02-13T08:12:48;103372.59;;;11.47;61.34
31299;BME280;17927;52.350;13.402;2023-02-13T08:15:14;103373.38;;;11.49;61.15
31299;BME280;17927;52.350;13.402;2023-02-13T08:17:39;103368.94;;;11.48;61.47
31299;BME280;17927;52.350;13.402;2023-02-13T08:20:06;103383.25;;;11.50;61.34
31299;BME280;17927;52.350;13.402;2023-02-13T08:22:32;103378.69;;;11.50;61.21
31299;BME280;17927;52.350;13.402;2023-02-13T08:24:57;103382.19;;;11.52;61.18
31299;BME280;17927;52.350;13.402;2023-02-13T08:27:23;103387.53;;;11.54;61.21
31299;BME280;17927;52.350;13.402;2023-02-13T08:29:48;103385.59;;;11.56;61.49
31299;BME280;17927;52.350;13.402;2023-02-13T08:32:15;103383.69;;;11.58;61.44
31299;BME280;17927;52.350;13.402;2023-02-13T08:34:40;103383.69;;;11.58;61.21
31299;BME280;17927;52.350;13.402;2023-02-13T08:37:05;103396.16;;;11.61;61.15
31299;BME280;17927;52.350;13.402;2023-02-13T08:39:30;103384.47;;;11.60;61.12
31299;BME280;17927;52.350;13.402;2023-02-13T08:41:56;103379.84;;;11.62;61.11
31299;BME280;17927;52.350;13.402;2023-02-13T08:44:21;103383.44;;;11.63;61.11
31299;BME280;17927;52.350;13.402;2023-02-13T08:46:46;103388.78;;;11.64;61.26
31299;BME280;17927;52.350;13.402;2023-02-13T08:49:11;103392.28;;;11.66;61.54
31299;BME280;17927;52.350;13.402;2023-02-13T08:51:37;103394.78;;;11.69;61.27
31299;BME280;17927;52.350;13.402;2023-02-13T08:54:02;103391.91;;;11.72;61.24
31299;BME280;17927;52.350;13.402;2023-02-13T08:56:27;103395.50;;;11.73;61.19
31299;BME280;17927;52.350;13.402;2023-02-13T08:58:52;103381.00;;;11.74;61.50
31299;BME280;17927;52.350;13.402;2023-02-13T09:01:19;103389.03;;;11.76;61.18
31299;BME280;17927;52.350;13.402;2023-02-13T09:03:44;103390.78;;;11.77;61.32
31299;BME280;17927;52.350;13.402;2023-02-13T09:06:09;103391.59;;;11.79;61.19
31299;BME280;17927;52.350;13.402;2023-02-13T09:08:35;103390.63;;;11.80;61.18
31299;BME280;17927;52.350;13.402;2023-02-13T09:11:02;103387.81;;;11.81;60.94
31299;BME280;17927;52.350;13.402;2023-02-13T09:13:29;103399.44;;;11.83;60.95
31299;BME280;17927;52.350;13.402;2023-02-13T09:16:00;103389.41;;;11.85;61.29
31299;BME280;17927;52.350;13.402;2023-02-13T09:18:27;103393.75;;;11.88;61.11
31299;BME280;17927;52.350;13.402;2023-02-13T09:20:59;103398.16;;;11.91;61.22
31299;BME280;17927;52.350;13.402;2023-02-13T09:23:25;103399.69;;;11.95;61.14
31299;BME280;17927;52.350;13.402;2023-02-13T09:25:50;103395.06;;;11.97;61.28
31299;BME280;17927;52.350;13.402;2023-02-13T09:28:15;103403.91;;;12.00;60.93
31299;BME280;17927;52.350;13.402;2023-02-13T09:30:41;103407.41;;;12.02;61.19
31299;BME280;17927;52.350;13.402;2023-02-13T09:33:09;103409.97;;;12.06;61.09
31299;BME280;17927;52.350;13.402;2023-02-13T09:35:35;103406.97;;;12.10;60.97
31299;BME280;17927;52.350;13.402;2023-02-13T09:38:01;103407.69;;;12.14;61.14
31299;BME280;17927;52.350;13.402;2023-02-13T09:40:35;103405.56;;;12.19;61.14
31299;BME280;17927;52.350;13.402;2023-02-13T09:43:07;103409.97;;;12.22;60.90
31299;BME280;17927;52.350;13.402;2023-02-13T09:45:36;103403.47;;;12.24;61.05
31299;BME280;17927;52.350;13.402;2023-02-13T09:48:03;103407.75;;;12.28;61.14
31299;BME280;17927;52.350;13.402;2023-02-13T09:50:30;103404.78;;;12.33;60.91
31299;BME280;17927;52.350;13.402;2023-02-13T09:52:58;103400.03;;;12.37;60.91
31299;BME280;17927;52.350;13.402;2023-02-13T09:55:39;103407.03;;;12.41;61.00
31299;BME280;17927;52.350;13.402;2023-02-13T09:58:18;103407.84;;;12.43;60.80
31299;BME280;17927;52.350;13.402;2023-02-13T10:00:53;103404.91;;;12.46;60.87
31299;BME280;17927;52.350;13.402;2023-02-13T10:03:32;103404.66;;;12.51;60.89
31299;BME280;17927;52.350;13.402;2023-02-13T10:06:23;103399.81;;;12.56;61.00
31299;BME280;17927;52.350;13.402;2023-02-13T10:09:29;103392.47;;;12.58;61.09
31299;BME280;17927;52.350;13.402;2023-02-13T10:12:14;103394.22;;;12.59;60.85
31299;BME280;17927;52.350;13.402;2023-02-13T10:14:51;103397.63;;;12.62;60.87
31299;BME280;17927;52.350;13.402;2023-02-13T10:17:29;103393.69;;;12.68;61.01
31299;BME280;17927;52.350;13.402;2023-02-13T10:20:00;103396.19;;;12.71;60.89
31299;BME280;17927;52.350;13.402;2023-02-13T10:22:33;103399.63;;;12.75;60.81
31299;BME280;17927;52.350;13.402;2023-02-13T10:25:05;103398.38;;;12.81;60.73
31299;BME280;17927;52.350;13.402;2023-02-13T10:27:39;103404.47;;;12.84;60.62
31299;BME280;17927;52.350;13.402;2023-02-13T10:35:18;103393.25;;;12.90;60.44
31299;BME280;17927;52.350;13.402;2023-02-13T10:37:46;103399.53;;;12.91;60.23
31299;BME280;17927;52.350;13.402;2023-02-13T10:40:15;103388.69;;;12.91;60.11
31299;BME280;17927;52.350;13.402;2023-02-13T10:51:13;103385.59;;;12.97;60.37
31299;BME280;17927;52.350;13.402;2023-02-13T10:56:42;103377.78;;;13.07;60.36
31299;BME280;17927;52.350;13.402;2023-02-13T10:59:33;103369.81;;;13.18;60.48
31299;BME280;17927;52.350;13.402;2023-02-13T11:02:17;103373.31;;;13.20;60.34
31299;BME280;17927;52.350;13.402;2023-02-13T11:04:45;103365.66;;;13.27;60.32
31299;BME280;17927;52.350;13.402;2023-02-13T11:07:14;103367.00;;;13.34;60.10
31299;BME280;17927;52.350;13.402;2023-02-13T11:09:43;103358.50;;;13.40;59.89
31299;BME280;17927;52.350;13.402;2023-02-13T11:12:25;103358.19;;;13.45;59.82
31299;BME280;17927;52.350;13.402;2023-02-13T11:14:58;103371.47;;;13.50;60.03
31299;BME280;17927;52.350;13.402;2023-02-13T11:17:26;103366.81;;;13.52;59.82
31299;BME280;17927;52.350;13.402;2023-02-13T11:19:54;103370.22;;;13.55;59.46
31299;BME280;17927;52.350;13.402;2023-02-13T11:22:28;103361.00;;;13.58;59.21
31299;BME280;17927;52.350;13.402;2023-02-13T11:24:58;103365.56;;;13.58;59.26
31299;BME280;17927;52.350;13.402;2023-02-13T11:27:28;103356.56;;;13.57;59.09
31299;BME280;17927;52.350;13.402;2023-02-13T11:29:57;103353.84;;;13.57;59.00
31299;BME280;17927;52.350;13.402;2023-02-13T11:32:26;103359.16;;;13.59;58.81
31299;BME280;17927;52.350;13.402;2023-02-13T11:34:51;103347.44;;;13.58;58.66
31299;BME280;17927;52.350;13.402;2023-02-13T11:37:28;103357.31;;;13.59;58.45
31299;BME280;17927;52.350;13.402;2023-02-13T11:39:56;103349.06;;;13.61;58.55
31299;BME280;17927;52.350;13.402;2023-02-13T11:42:33;103356.13;;;13.63;58.36
31299;BME280;17927;52.350;13.402;2023-02-13T11:45:21;103347.00;;;13.64;58.25
31299;BME280;17927;52.350;13.402;2023-02-13T11:47:47;103334.31;;;13.65;58.44
31299;BME280;17927;52.350;13.402;2023-02-13T11:55:32;103346.94;;;13.66;57.77
31299;BME280;17927;52.350;13.402;2023-02-13T11:58:23;103346.94;;;13.66;57.73
31299;BME280;17927;52.350;13.402;2023-02-13T12:00:48;103342.47;;;13.65;58.11
31299;BME280;17927;52.350;13.402;2023-02-13T12:06:11;103344.75;;;13.71;57.72
31299;BME280;17927;52.350;13.402;2023-02-13T12:08:41;103344.75;;;13.71;57.82
31299;BME280;17927;52.350;13.402;2023-02-13T12:11:24;103343.78;;;13.72;57.53
31299;BME280;17927;52.350;13.402;2023-02-13T12:13:53;103339.44;;;13.69;57.57
31299;BME280;17927;52.350;13.402;2023-02-13T12:16:30;103332.94;;;13.72;57.54
31299;BME280;17927;52.350;13.402;2023-02-13T12:18:59;103337.50;;;13.72;57.37
31299;BME280;17927;52.350;13.402;2023-02-13T12:24:38;103334.59;;;13.75;57.16
31299;BME280;17927;52.350;13.402;2023-02-13T12:27:18;103336.63;;;13.71;57.18
31299;BME280;17927;52.350;13.402;2023-02-13T12:38:42;103337.84;;;13.80;56.99
31299;BME280;17927;52.350;13.402;2023-02-13T12:41:19;103335.13;;;13.80;56.98
31299;BME280;17927;52.350;13.402;2023-02-13T12:44:01;103333.19;;;13.82;56.70
31299;BME280;17927;52.350;13.402;2023-02-13T12:46:47;103337.84;;;13.80;56.71
31299;BME280;17927;52.350;13.402;2023-02-13T12:49:35;103332.41;;;13.80;56.90
31299;BME280;17927;52.350;13.402;2023-02-13T12:52:22;103340.56;;;13.80;56.57
31299;BME280;17927;52.350;13.402;2023-02-13T13:00:35;103340.69;;;13.78;56.55
31299;BME280;17927;52.350;13.402;2023-02-13T13:03:18;103327.97;;;13.79;56.49
31299;BME280;17927;52.350;13.402;2023-02-13T13:06:03;103330.59;;;13.80;56.45
31299;BME280;17927;52.350;13.402;2023-02-13T13:08:48;103331.56;;;13.79;56.14
31299;BME280;17927;52.350;13.402;2023-02-13T13:11:38;103324.19;;;13.81;56.07
31299;BME280;17927;52.350;13.402;2023-02-13T13:19:51;103326.72;;;13.84;56.07
31299;BME280;17927;52.350;13.402;2023-02-13T13:22:31;103324.84;;;13.85;56.20
31299;BME280;17927;52.350;13.402;2023-02-13T13:27:30;103323.69;;;13.89;55.76
31299;BME280;17927;52.350;13.402;2023-02-13T13:30:04;103324.53;;;13.90;55.59
31299;BME280;17927;52.350;13.402;2023-02-13T13:32:30;103325.41;;;13.90;55.70
31299;BME280;17927;52.350;13.402;2023-02-13T13:34:56;103326.41;;;13.89;55.66
31299;BME280;17927;52.350;13.402;2023-02-13T13:37:33;103323.75;;;13.88;55.41
31299;BME280;17927;52.350;13.402;2023-02-13T13:45:56;103321.09;;;13.73;55.69
31299;BME280;17927;52.350;13.402;2023-02-13T13:51:24;103321.41;;;13.68;55.77
31299;BME280;17927;52.350;13.402;2023-02-13T13:56:24;103324.13;;;13.68;55.64
31299;BME280;17927;52.350;13.402;2023-02-13T13:58:49;103315.97;;;13.68;55.83
31299;BME280;17927;52.350;13.402;2023-02-13T14:01:31;103324.22;;;13.67;55.56
31299;BME280;17927;52.350;13.402;2023-02-13T14:03:57;103321.53;;;13.52;55.98
31299;BME280;17927;52.350;13.402;2023-02-13T14:06:26;103329.47;;;13.55;56.05
31299;BME280;17927;52.350;13.402;2023-02-13T14:08:58;103314.84;;;13.58;55.81
31299;BME280;17927;52.350;13.402;2023-02-13T14:11:38;103306.69;;;13.58;55.46
31299;BME280;17927;52.350;13.402;2023-02-13T14:16:49;103311.84;;;13.48;56.13
31299;BME280;17927;52.350;13.402;2023-02-13T14:19:37;103308.81;;;13.53;55.82
31299;BME280;17927;52.350;13.402;2023-02-13T14:27:25;103287.88;;;13.55;55.44
31299;BME280;17927;52.350;13.402;2023-02-13T14:29:53;103292.44;;;13.54;55.62
31299;BME280;17927;52.350;13.402;2023-02-13T14:32:33;103291.44;;;13.55;55.59
31299;BME280;17927;52.350;13.402;2023-02-13T14:35:02;103286.00;;;13.55;55.53
31299;BME280;17927;52.350;13.402;2023-02-13T14:37:37;103283.28;;;13.55;55.49
31299;BME280;17927;52.350;13.402;2023-02-13T14:42:45;103273.53;;;13.53;55.45